createdAt,value
2023-04-15T00:00:49.576Z,0.8
2023-04-15T00:01:59.278Z,1.2
2023-04-15T00:03:09.037Z,1.1
2023-04-15T00:04:17.668Z,0.7
2023-04-15T00:05:27.312Z,0.7
2023-04-15T00:06:36.015Z,0.6
2023-04-15T00:07:44.647Z,0.6
2023-04-15T00:08:54.385Z,0.8
2023-04-15T00:10:04.097Z,0.7
2023-04-15T00:11:13.756Z,1
2023-04-15T00:12:23.490Z,0.7
2023-04-15T00:13:31.287Z,0.9
2023-04-15T00:14:40.066Z,0.9
2023-04-15T00:15:48.764Z,0.9
2023-04-15T00:16:57.597Z,1
2023-04-15T00:18:07.174Z,1
2023-04-15T00:19:16.934Z,0.6
2023-04-15T00:20:25.660Z,0.4
2023-04-15T00:21:35.399Z,0.7
2023-04-15T00:22:43.145Z,0.5
2023-04-15T00:23:52.816Z,0.6
2023-04-15T00:25:02.535Z,0.6
2023-04-15T00:26:12.283Z,0.6
2023-04-15T00:27:20.989Z,0.3
2023-04-15T00:28:29.699Z,0.5
2023-04-15T00:29:38.418Z,0.7
2023-04-15T00:30:48.177Z,0.7
2023-04-15T00:31:55.862Z,0.8
2023-04-15T00:33:05.673Z,0.6
2023-04-15T00:34:14.311Z,0.8
2023-04-15T00:35:22.068Z,1.1
2023-04-15T00:36:31.759Z,0.8
2023-04-15T00:37:39.421Z,0.6
2023-04-15T00:38:48.203Z,0.8
2023-04-15T00:39:57.845Z,0.6
2023-04-15T00:41:05.514Z,0.6
2023-04-15T00:42:15.259Z,0.5
2023-04-15T00:43:23.998Z,0.5
2023-04-15T00:44:31.673Z,0.6
2023-04-15T00:45:41.436Z,0.4
2023-04-15T00:46:51.053Z,0.8
2023-04-15T00:47:59.770Z,0.4
2023-04-15T00:49:09.429Z,0.6
2023-04-15T00:50:17.143Z,0.6
2023-04-15T00:51:26.882Z,0.6
2023-04-15T00:52:35.584Z,0.9
2023-04-15T00:53:44.293Z,1.2
2023-04-15T00:54:54.063Z,0.8
2023-04-15T00:56:01.773Z,0.6
2023-04-15T00:57:11.504Z,0.5
2023-04-15T00:58:20.175Z,0.9
2023-04-15T00:59:28.872Z,0.6
2023-04-15T01:00:38.617Z,0.4
2023-04-15T01:01:47.377Z,0.8
2023-04-15T01:02:55.143Z,0.4
2023-04-15T01:04:05.001Z,0.7
2023-04-15T01:05:12.511Z,0.4
2023-04-15T01:06:20.236Z,0.6
2023-04-15T01:07:29.955Z,0.6
2023-04-15T01:08:38.676Z,0.5
2023-04-15T01:09:47.407Z,0.7
2023-04-15T01:10:57.206Z,0.4
2023-04-15T01:12:04.861Z,0.6
2023-04-15T01:13:13.562Z,0.7
2023-04-15T01:14:23.260Z,0.8
2023-04-15T01:15:30.946Z,0.8
2023-04-15T01:16:40.665Z,1
2023-04-15T01:17:50.362Z,0.8
2023-04-15T01:18:59.268Z,0.9
2023-04-15T01:20:08.808Z,0.7
2023-04-15T01:21:16.488Z,1
2023-04-15T01:22:26.220Z,1.1
2023-04-15T01:23:35.937Z,0.9
2023-04-15T01:24:44.654Z,1.3
2023-04-15T01:25:54.377Z,0.9
2023-04-15T01:27:03.130Z,0.9
2023-04-15T01:28:11.803Z,1
2023-04-15T01:29:21.519Z,1.1
2023-04-15T01:30:29.289Z,1.3
2023-04-15T01:31:38.003Z,1
2023-04-15T01:32:47.657Z,1.1
2023-04-15T01:33:56.356Z,1.1
2023-04-15T01:35:06.092Z,1.1
2023-04-15T01:36:14.786Z,0.6
2023-04-15T01:37:22.647Z,1.1
2023-04-15T01:38:32.422Z,0.9
2023-04-15T01:39:42.141Z,0.9
2023-04-15T01:40:50.866Z,0.7
2023-04-15T01:42:00.601Z,0.9
2023-04-15T01:43:09.340Z,1
2023-04-15T01:44:19.022Z,0.9
2023-04-15T01:45:27.780Z,0.7
2023-04-15T01:46:36.538Z,0.7
2023-04-15T01:47:46.294Z,0.9
2023-04-15T01:48:53.957Z,0.7
2023-04-15T01:50:02.688Z,0.7
2023-04-15T01:51:12.401Z,0.9
2023-04-15T01:52:20.093Z,1.2
2023-04-15T01:53:29.900Z,1.4
2023-04-15T01:54:38.607Z,1.3
2023-04-15T01:55:46.331Z,1
2023-04-15T01:56:56.030Z,1.6
2023-04-15T01:58:03.733Z,1.3
2023-04-15T01:59:12.452Z,1.4
2023-04-15T02:00:22.157Z,1.2
2023-04-15T02:01:30.945Z,1.2
2023-04-15T02:02:40.749Z,0.8
2023-04-15T02:03:49.481Z,0.8
2023-04-15T02:04:57.044Z,0.6
2023-04-15T02:06:06.769Z,0.5
2023-04-15T02:07:15.444Z,0.6
2023-04-15T02:08:24.141Z,0.9
2023-04-15T02:09:33.861Z,0.6
2023-04-15T02:10:41.587Z,1
2023-04-15T02:11:51.309Z,0.8
2023-04-15T02:12:59.959Z,0.8
2023-04-15T02:14:08.613Z,1
2023-04-15T02:15:18.335Z,1
2023-04-15T02:16:26.014Z,0.7
2023-04-15T02:17:34.725Z,0.8
2023-04-15T02:18:44.400Z,0.9
2023-04-15T02:19:52.083Z,0.9
2023-04-15T02:21:01.817Z,0.9
2023-04-15T02:22:10.453Z,1
2023-04-15T02:23:18.174Z,1.2
2023-04-15T02:24:27.863Z,1
2023-04-15T02:25:35.536Z,1.2
2023-04-15T02:26:45.231Z,1.2
2023-04-15T02:27:54.974Z,0.7
2023-04-15T02:29:03.657Z,1.1
2023-04-15T02:30:13.364Z,1.1
2023-04-15T02:31:22.091Z,1
2023-04-15T02:32:29.879Z,0.7
2023-04-15T02:33:38.530Z,0.6
2023-04-15T02:34:46.216Z,0.7
2023-04-15T02:35:56.017Z,0.6
2023-04-15T02:37:05.676Z,0.8
2023-04-15T02:38:13.378Z,0.6
2023-04-15T02:39:24.121Z,0.9
2023-04-15T02:40:32.801Z,0.8
2023-04-15T02:41:41.567Z,0.6
2023-04-15T02:42:51.271Z,0.5
2023-04-15T02:43:59.914Z,0.6
2023-04-15T02:45:08.598Z,0.4
2023-04-15T02:46:18.355Z,0.8
2023-04-15T02:47:26.098Z,0.8
2023-04-15T02:48:35.718Z,0.6
2023-04-15T02:49:44.390Z,0.4
2023-04-15T02:50:54.118Z,0.4
2023-04-15T02:52:03.800Z,0.5
2023-04-15T02:53:11.483Z,0.5
2023-04-15T02:54:20.167Z,0.4
2023-04-15T02:55:29.834Z,0.5
2023-04-15T02:56:37.601Z,0.4
2023-04-15T02:57:47.300Z,0.7
2023-04-15T02:58:56.015Z,0.5
2023-04-15T03:00:03.714Z,0.6
2023-04-15T03:01:13.430Z,0.7
2023-04-15T03:02:21.261Z,0.4
2023-04-15T03:03:32.000Z,0.6
2023-04-15T03:04:41.628Z,0.6
2023-04-15T03:05:50.347Z,0.7
2023-04-15T03:06:59.035Z,0.6
2023-04-15T03:08:08.721Z,0.8
2023-04-15T03:09:17.419Z,0.5
2023-04-15T03:10:26.106Z,0.5
2023-04-15T03:11:36.470Z,0.6
2023-04-15T03:12:43.503Z,0.5
2023-04-15T03:13:53.199Z,0.7
2023-04-15T03:15:02.890Z,0.6
2023-04-15T03:16:10.649Z,0.5
2023-04-15T03:17:20.334Z,0.6
2023-04-15T03:18:28.985Z,0.5
2023-04-15T03:19:37.719Z,0.7
2023-04-15T03:20:47.397Z,0.6
2023-04-15T03:21:56.162Z,0.5
2023-04-15T03:23:05.812Z,0.7
2023-04-15T03:24:15.519Z,0.7
2023-04-15T03:25:23.250Z,0.5
2023-04-15T03:26:32.948Z,0.7
2023-04-15T03:27:40.624Z,0.9
2023-04-15T03:28:50.311Z,0.8
2023-04-15T03:29:59.012Z,0.5
2023-04-15T03:31:07.777Z,0.5
2023-04-15T03:32:17.448Z,0.8
2023-04-15T03:33:25.203Z,0.8
2023-04-15T03:34:33.930Z,1.3
2023-04-15T03:35:42.652Z,1.1
2023-04-15T03:36:51.364Z,0.8
2023-04-15T03:38:00.109Z,0.5
2023-04-15T03:39:09.845Z,0.5
2023-04-15T03:40:17.540Z,0.5
2023-04-15T03:41:27.303Z,0.5
2023-04-15T03:42:35.992Z,0.4
2023-04-15T03:43:44.692Z,0.7
2023-04-15T03:44:54.395Z,0.7
2023-04-15T03:46:04.185Z,0.8
2023-04-15T03:47:13.885Z,0.9
2023-04-15T03:48:23.590Z,0.7
2023-04-15T03:49:32.278Z,0.8
2023-04-15T03:50:41.995Z,0.7
2023-04-15T03:51:51.744Z,0.6
2023-04-15T03:52:59.441Z,0.5
2023-04-15T03:54:09.120Z,0.6
2023-04-15T03:55:16.790Z,0.7
2023-04-15T03:56:25.507Z,0.7
2023-04-15T03:57:35.228Z,0.9
2023-04-15T03:58:44.926Z,0.6
2023-04-15T03:59:54.610Z,0.9
2023-04-15T04:01:03.299Z,0.6
2023-04-15T04:02:12.113Z,1.1
2023-04-15T04:03:21.788Z,1.2
2023-04-15T04:04:31.512Z,1.2
2023-04-15T04:05:40.108Z,1.2
2023-04-15T04:06:49.825Z,1.2
2023-04-15T04:07:58.587Z,1.1
2023-04-15T04:09:08.186Z,1
2023-04-15T04:10:16.856Z,1.5
2023-04-15T04:11:24.649Z,1.7
2023-04-15T04:12:35.305Z,1.5
2023-04-15T04:13:43.029Z,1.1
2023-04-15T04:14:51.708Z,1.4
2023-04-15T04:16:01.427Z,1.8
2023-04-15T04:17:09.163Z,1.4
2023-04-15T04:18:18.805Z,1.2
2023-04-15T04:19:27.477Z,1.2
2023-04-15T04:20:36.196Z,1.2
2023-04-15T04:21:45.891Z,0.9
2023-04-15T04:22:53.623Z,1.3
2023-04-15T04:24:02.337Z,1.5
2023-04-15T04:25:11.988Z,1.3
2023-04-15T04:26:19.672Z,1.5
2023-04-15T04:27:29.421Z,1.2
2023-04-15T04:28:38.131Z,0.9
2023-04-15T04:29:45.856Z,1.1
2023-04-15T04:30:55.550Z,1.3
2023-04-15T04:32:03.322Z,1.4
2023-04-15T04:33:12.959Z,0.7
2023-04-15T04:34:22.689Z,1.1
2023-04-15T04:35:32.378Z,1.5
2023-04-15T04:36:42.089Z,1.1
2023-04-15T04:37:50.808Z,1.5
2023-04-15T04:38:59.699Z,1.3
2023-04-15T04:40:09.292Z,1
2023-04-15T04:41:16.970Z,1.3
2023-04-15T04:42:25.713Z,1.1
2023-04-15T04:43:35.430Z,1.6
2023-04-15T04:44:44.205Z,1.2
2023-04-15T04:45:53.951Z,1.2
2023-04-15T04:47:02.765Z,1.3
2023-04-15T04:48:11.479Z,1.4
2023-04-15T04:49:21.152Z,1.1
2023-04-15T04:50:29.854Z,1
2023-04-15T04:51:39.546Z,1.1
2023-04-15T04:52:49.279Z,0.8
2023-04-15T04:53:57.973Z,1
2023-04-15T04:55:07.670Z,0.8
2023-04-15T04:56:17.393Z,0.7
2023-04-15T04:57:25.147Z,1
2023-04-15T04:58:34.873Z,0.9
2023-04-15T04:59:42.548Z,0.6
2023-04-15T05:00:51.270Z,1
2023-04-15T05:02:01.040Z,0.8
2023-04-15T05:03:09.830Z,0.6
2023-04-15T05:04:18.432Z,0.8
2023-04-15T05:05:28.125Z,0.6
2023-04-15T05:06:35.793Z,0.8
2023-04-15T05:07:45.508Z,0.5
2023-04-15T05:08:55.274Z,0.6
2023-04-15T05:10:03.978Z,0.9
2023-04-15T05:11:13.731Z,0.9
2023-04-15T05:12:22.457Z,0.6
2023-04-15T05:13:30.141Z,0.7
2023-04-15T05:14:39.805Z,0.7
2023-04-15T05:15:47.517Z,0.8
2023-04-15T05:16:56.201Z,0.9
2023-04-15T05:18:06.000Z,0.8
2023-04-15T05:19:14.639Z,0.9
2023-04-15T05:20:25.295Z,0.9
2023-04-15T05:21:33.974Z,0.7
2023-04-15T05:22:43.652Z,1
2023-04-15T05:23:53.386Z,0.8
2023-04-15T05:25:02.090Z,0.8
2023-04-15T05:26:11.780Z,1.3
2023-04-15T05:27:21.490Z,1.1
2023-04-15T05:28:29.226Z,1.2
2023-04-15T05:29:38.916Z,1
2023-04-15T05:30:48.659Z,1.1
2023-04-15T05:31:56.270Z,0.9
2023-04-15T05:33:05.987Z,1.1
2023-04-15T05:34:14.678Z,1
2023-04-15T05:35:23.442Z,1.2
2023-04-15T05:36:33.124Z,1.3
2023-04-15T05:37:41.882Z,1.2
2023-04-15T05:38:51.571Z,1.4
2023-04-15T05:40:00.257Z,1.5
2023-04-15T05:41:07.968Z,1.1
2023-04-15T05:42:17.730Z,1.3
2023-04-15T05:43:26.379Z,1.2
2023-04-15T05:44:36.081Z,1.5
2023-04-15T05:45:45.783Z,1.6
2023-04-15T05:46:54.570Z,1.5
2023-04-15T05:48:04.310Z,1.3
2023-04-15T05:49:13.045Z,1.3
2023-04-15T05:50:21.775Z,1.3
2023-04-15T05:51:31.456Z,1
2023-04-15T05:52:39.233Z,0.8
2023-04-15T05:53:47.987Z,1.1
2023-04-15T05:54:57.719Z,1.1
2023-04-15T05:56:07.429Z,1.2
2023-04-15T05:57:17.086Z,1.4
2023-04-15T05:58:26.826Z,0.7
2023-04-15T05:59:35.599Z,1.4
2023-04-15T06:00:45.354Z,1.4
2023-04-15T06:01:54.058Z,1.1
2023-04-15T06:03:03.839Z,1.3
2023-04-15T06:04:13.536Z,1.3
2023-04-15T06:05:22.221Z,0.8
2023-04-15T06:06:31.962Z,1.1
2023-04-15T06:07:40.678Z,1.5
2023-04-15T06:08:49.434Z,1.1
2023-04-15T06:09:59.266Z,1.3
2023-04-15T06:11:07.018Z,1.4
2023-04-15T06:12:16.748Z,1.4
2023-04-15T06:13:26.525Z,1.4
2023-04-15T06:14:35.225Z,1.4
2023-04-15T06:15:44.942Z,1.6
2023-04-15T06:16:53.658Z,1.3
2023-04-15T06:18:02.468Z,1.3
2023-04-15T06:19:12.121Z,1
2023-04-15T06:20:19.894Z,0.8
2023-04-15T06:21:29.647Z,0.9
2023-04-15T06:22:38.430Z,1.7
2023-04-15T06:23:47.134Z,1.1
2023-04-15T06:24:56.877Z,1
2023-04-15T06:26:05.589Z,0.9
2023-04-15T06:27:13.306Z,1
2023-04-15T06:28:23.068Z,1.3
2023-04-15T06:29:31.755Z,0.7
2023-04-15T06:30:40.449Z,0.8
2023-04-15T06:31:50.176Z,1
2023-04-15T06:32:58.942Z,0.8
2023-04-15T06:34:08.608Z,0.8
2023-04-15T06:35:17.313Z,0.7
2023-04-15T06:36:26.022Z,1.1
2023-04-15T06:37:35.706Z,0.6
2023-04-15T06:38:43.442Z,1.1
2023-04-15T06:39:52.121Z,1.3
2023-04-15T06:41:01.783Z,1.4
2023-04-15T06:42:10.530Z,1.3
2023-04-15T06:43:20.201Z,1.2
2023-04-15T06:44:28.897Z,1.3
2023-04-15T06:45:36.609Z,1.6
2023-04-15T06:46:47.262Z,1.9
2023-04-15T06:47:55.968Z,1.6
2023-04-15T06:49:04.715Z,1
2023-04-15T06:50:14.461Z,1
2023-04-15T06:51:22.128Z,0.6
2023-04-15T06:52:31.873Z,0.4
2023-04-15T06:53:40.565Z,0.5
2023-04-15T06:54:50.258Z,0.6
2023-04-15T06:56:00.022Z,0.6
2023-04-15T06:57:09.722Z,0.8
2023-04-15T06:58:19.386Z,0.8
2023-04-15T06:59:29.121Z,0.8
2023-04-15T07:00:38.795Z,0.7
2023-04-15T07:01:47.504Z,1
2023-04-15T07:02:57.186Z,0.8
2023-04-15T07:04:04.890Z,0.6
2023-04-15T07:05:13.597Z,0.6
2023-04-15T07:06:23.264Z,0.8
2023-04-15T07:07:32.985Z,0.4
2023-04-15T07:08:42.676Z,1
2023-04-15T07:09:51.385Z,0.5
2023-04-15T07:11:00.057Z,0.6
2023-04-15T07:12:09.815Z,0.5
2023-04-15T07:13:17.520Z,1.3
2023-04-15T07:14:26.273Z,2
2023-04-15T07:15:35.980Z,1.6
2023-04-15T07:16:45.686Z,1.1
2023-04-15T07:17:55.455Z,0.9
2023-04-15T07:19:05.126Z,0.5
2023-04-15T07:20:13.861Z,0.4
2023-04-15T07:21:22.651Z,0.3
2023-04-15T07:22:30.360Z,0.3
2023-04-15T07:23:39.071Z,0.5
2023-04-15T07:24:48.797Z,0.9
2023-04-15T07:25:56.492Z,0.9
2023-04-15T07:27:06.192Z,0.5
2023-04-15T07:28:14.882Z,0.6
2023-04-15T07:29:23.626Z,0.6
2023-04-15T07:30:33.305Z,0.6
2023-04-15T07:31:41.020Z,0.3
2023-04-15T07:32:51.696Z,0.3
2023-04-15T07:34:01.334Z,0.4
2023-04-15T07:35:10.087Z,0.7
2023-04-15T07:36:19.758Z,0.4
2023-04-15T07:37:28.481Z,0.5
2023-04-15T07:38:36.159Z,0.4
2023-04-15T07:39:45.883Z,0.5
2023-04-15T07:40:53.581Z,0.5
2023-04-15T07:42:02.553Z,0.5
2023-04-15T07:43:11.980Z,0.6
2023-04-15T07:44:20.700Z,0.3
2023-04-15T07:45:30.387Z,0.4
2023-04-15T07:46:39.232Z,0.8
2023-04-15T07:47:47.879Z,0.9
2023-04-15T07:48:57.536Z,0.6
2023-04-15T07:50:06.242Z,0.4
2023-04-15T07:51:14.915Z,0.3
2023-04-15T07:52:24.623Z,0.4
2023-04-15T07:53:32.368Z,0.4
2023-04-15T07:54:42.028Z,0.4
2023-04-15T07:55:49.722Z,0.4
2023-04-15T07:56:58.446Z,0.6
2023-04-15T07:58:08.138Z,0.3
2023-04-15T07:59:16.930Z,0.6
2023-04-15T08:00:25.634Z,0.3
2023-04-15T08:01:35.372Z,0.3
2023-04-15T08:02:44.102Z,0.7
2023-04-15T08:03:53.791Z,0.3
2023-04-15T08:05:02.484Z,0.4
2023-04-15T08:06:10.153Z,0.4
2023-04-15T08:07:19.838Z,0.5
2023-04-15T08:08:29.581Z,0.3
2023-04-15T08:09:39.423Z,0.4
2023-04-15T08:10:50.239Z,0.3
2023-04-15T08:11:57.659Z,0.2
2023-04-15T08:13:07.387Z,0.5
2023-04-15T08:14:16.065Z,0.6
2023-04-15T08:15:23.764Z,0.2
2023-04-15T08:16:33.646Z,0.3
2023-04-15T08:17:41.305Z,0.3
2023-04-15T08:18:49.989Z,0.3
2023-04-15T08:19:59.729Z,0.5
2023-04-15T08:21:07.580Z,0.6
2023-04-15T08:22:17.396Z,0.7
2023-04-15T08:23:27.156Z,0.4
2023-04-15T08:24:36.919Z,0.2
2023-04-15T08:25:47.680Z,0.1
2023-04-15T08:26:55.472Z,0.4
2023-04-15T08:28:04.192Z,0.4
2023-04-15T08:29:13.873Z,1
2023-04-15T08:30:21.659Z,0.6
2023-04-15T08:31:31.420Z,0.5
2023-04-15T08:32:40.120Z,0.5
2023-04-15T08:33:48.801Z,0.6
2023-04-15T08:34:58.482Z,0.5
2023-04-15T08:36:07.243Z,0.3
2023-04-15T08:37:16.937Z,0.2
2023-04-15T08:38:26.644Z,0.3
2023-04-15T08:39:37.330Z,0.4
2023-04-15T08:40:47.077Z,0.7
2023-04-15T08:41:55.771Z,0.3
2023-04-15T08:43:03.444Z,0.5
2023-04-15T08:44:13.159Z,0.2
2023-04-15T08:45:22.848Z,0.4
2023-04-15T08:46:31.526Z,0.4
2023-04-15T08:47:41.266Z,0.5
2023-04-15T08:48:49.905Z,0.4
2023-04-15T08:49:59.580Z,0.5
2023-04-15T08:51:09.324Z,0.4
2023-04-15T08:52:17.045Z,0.4
2023-04-15T08:53:26.737Z,0.3
2023-04-15T08:54:35.436Z,0.4
2023-04-15T08:55:44.162Z,0.3
2023-04-15T08:56:53.923Z,0.3
2023-04-15T08:58:02.560Z,0.5
2023-04-15T08:59:11.325Z,0.7
2023-04-15T09:00:21.149Z,0.2
2023-04-15T09:01:30.804Z,0.8
2023-04-15T09:02:40.645Z,0.9
2023-04-15T09:03:49.480Z,1
2023-04-15T09:04:57.050Z,1.1
2023-04-15T09:06:06.787Z,1.3
2023-04-15T09:07:16.539Z,1.2
2023-04-15T09:08:26.256Z,1.1
2023-04-15T09:09:35.899Z,1.1
2023-04-15T09:10:44.646Z,1
2023-04-15T09:11:53.311Z,1.1
2023-04-15T09:13:02.993Z,0.9
2023-04-15T09:14:11.701Z,1.1
2023-04-15T09:15:21.379Z,1.2
2023-04-15T09:16:29.101Z,0.7
2023-04-15T09:17:37.826Z,0.7
2023-04-15T09:18:47.545Z,0.8
2023-04-15T09:19:56.274Z,0.8
2023-04-15T09:21:05.980Z,0.7
2023-04-15T09:22:15.648Z,0.6
2023-04-15T09:23:24.381Z,0.5
2023-04-15T09:24:34.091Z,0.7
2023-04-15T09:25:42.863Z,0.4
2023-04-15T09:26:51.582Z,0.6
2023-04-15T09:28:01.350Z,0.5
2023-04-15T09:29:09.083Z,0.4
2023-04-15T09:30:18.872Z,0.4
2023-04-15T09:31:28.958Z,0.4
2023-04-15T09:32:37.592Z,0.8
2023-04-15T09:33:47.381Z,0.5
2023-04-15T09:34:56.145Z,0.6
2023-04-15T09:36:03.907Z,0.2
2023-04-15T09:37:24.465Z,0.3
2023-04-15T09:38:22.376Z,0.4
2023-04-15T09:39:31.069Z,0.5
2023-04-15T09:40:40.802Z,0.4
2023-04-15T09:41:48.498Z,0.5
2023-04-15T09:42:58.222Z,0.7
2023-04-15T09:44:08.887Z,0.4
2023-04-15T09:45:17.694Z,0.4
2023-04-15T09:46:27.472Z,0.3
2023-04-15T09:47:35.120Z,0.4
2023-04-15T09:48:43.821Z,0.3
2023-04-15T09:49:53.658Z,0.5
2023-04-15T09:51:02.337Z,0.4
2023-04-15T09:52:12.032Z,0.4
2023-04-15T09:53:20.781Z,0.4
2023-04-15T09:54:28.412Z,0.4
2023-04-15T09:55:38.136Z,0.2
2023-04-15T09:56:46.862Z,0.3
2023-04-15T09:57:56.584Z,0.4
2023-04-15T09:59:06.320Z,0.4
2023-04-15T10:00:16.060Z,0.5
2023-04-15T10:01:26.314Z,0.5
2023-04-15T10:02:35.201Z,0.5
2023-04-15T10:03:42.842Z,0.4
2023-04-15T10:04:52.517Z,0.7
2023-04-15T10:06:01.264Z,0.8
2023-04-15T10:07:11.033Z,1.2
2023-04-15T10:08:19.706Z,1
2023-04-15T10:09:29.394Z,1.6
2023-04-15T10:10:38.097Z,1.5
2023-04-15T10:11:47.820Z,1.5
2023-04-15T10:12:55.511Z,1.5
2023-04-15T10:14:05.229Z,1.1
2023-04-15T10:15:14.989Z,0.9
2023-04-15T10:16:22.813Z,0.8
2023-04-15T10:17:32.588Z,0.9
2023-04-15T10:18:41.298Z,0.9
2023-04-15T10:19:51.023Z,1.1
2023-04-15T10:21:00.865Z,1.2
2023-04-15T10:22:09.697Z,0.9
2023-04-15T10:23:19.369Z,1
2023-04-15T10:24:29.047Z,0.5
2023-04-15T10:25:36.730Z,1
2023-04-15T10:26:45.552Z,0.6
2023-04-15T10:27:53.222Z,1.1
2023-04-15T10:29:02.911Z,0.9
2023-04-15T10:30:12.635Z,0.8
2023-04-15T10:31:20.446Z,0.6
2023-04-15T10:32:30.189Z,0.5
2023-04-15T10:33:38.847Z,0.7
2023-04-15T10:34:47.661Z,0.7
2023-04-15T10:35:57.445Z,0.7
2023-04-15T10:37:06.319Z,0.7
2023-04-15T10:38:15.073Z,0.9
2023-04-15T10:39:24.856Z,1
2023-04-15T10:40:33.612Z,0.8
2023-04-15T10:41:43.299Z,0.9
2023-04-15T10:42:52.053Z,1.2
2023-04-15T10:44:01.167Z,1.4
2023-04-15T10:45:10.598Z,1.1
2023-04-15T10:46:18.431Z,1.5
2023-04-15T10:47:27.133Z,1.4
2023-04-15T10:48:36.864Z,1
2023-04-15T10:49:45.565Z,1.1
2023-04-15T10:50:55.403Z,1.1
2023-04-15T10:52:04.105Z,1
2023-04-15T10:53:12.796Z,1
2023-04-15T10:54:22.629Z,0.6
2023-04-15T10:55:32.396Z,0.7
2023-04-15T10:56:41.111Z,0.6
2023-04-15T10:57:50.825Z,0.8
2023-04-15T10:59:00.690Z,0.8
2023-04-15T11:00:08.655Z,0.4
2023-04-15T11:01:17.474Z,0.6
2023-04-15T11:02:26.388Z,0.8
2023-04-15T11:03:36.135Z,0.6
2023-04-15T11:04:45.830Z,0.5
2023-04-15T11:05:55.503Z,1
2023-04-15T11:07:05.642Z,1
2023-04-15T11:08:15.442Z,1
2023-04-15T11:09:24.199Z,1
2023-04-15T11:10:33.994Z,1.1
2023-04-15T11:11:41.970Z,1.2
2023-04-15T11:12:49.782Z,1
2023-04-15T11:13:59.521Z,0.9
2023-04-15T11:15:08.324Z,1.1
2023-04-15T11:16:18.128Z,0.9
2023-04-15T11:17:26.786Z,1.3
2023-04-15T11:18:36.489Z,0.7
2023-04-15T11:19:46.201Z,1
2023-04-15T11:20:54.945Z,0.8
2023-04-15T11:22:03.753Z,0.5
2023-04-15T11:23:14.187Z,0.8
2023-04-15T11:24:23.469Z,1
2023-04-15T11:25:33.265Z,1.2
2023-04-15T11:26:42.036Z,0.7
2023-04-15T11:27:49.811Z,0.8
2023-04-15T11:28:59.589Z,0.8
2023-04-15T11:30:09.366Z,0.7
2023-04-15T11:31:18.491Z,0.6
2023-04-15T11:32:27.909Z,0.8
2023-04-15T11:33:36.648Z,0.6
2023-04-15T11:34:46.453Z,0.6
2023-04-15T11:35:56.336Z,0.9
2023-04-15T11:37:04.008Z,0.9
2023-04-15T11:38:13.793Z,1
2023-04-15T11:39:22.561Z,1.1
2023-04-15T11:40:32.344Z,1.3
2023-04-15T11:41:42.102Z,1.4
2023-04-15T11:42:51.870Z,1.1
2023-04-15T11:44:01.827Z,1.5
2023-04-15T11:45:10.314Z,1.3
2023-04-15T11:46:18.223Z,1.1
2023-04-15T11:47:27.894Z,0.9
2023-04-15T11:48:36.609Z,1
2023-04-15T11:49:45.372Z,0.9
2023-04-15T11:50:55.143Z,0.7
2023-04-15T11:52:04.884Z,0.5
2023-04-15T11:53:14.722Z,0.8
2023-04-15T11:54:23.518Z,1.1
2023-04-15T11:55:32.383Z,0.9
2023-04-15T11:56:42.315Z,1.1
2023-04-15T11:57:51.089Z,0.9
2023-04-15T11:58:59.917Z,1.1
2023-04-15T12:00:09.731Z,0.8
2023-04-15T12:01:17.579Z,0.8
2023-04-15T12:02:27.903Z,1.2
2023-04-15T12:03:37.726Z,0.7
2023-04-15T12:04:45.496Z,1
2023-04-15T12:05:55.161Z,0.9
2023-04-15T12:07:06.151Z,1.1
2023-04-15T12:08:15.059Z,1.3
2023-04-15T12:09:25.065Z,1.1
2023-04-15T12:10:32.942Z,0.9
2023-04-15T12:11:42.844Z,0.9
2023-04-15T12:12:51.645Z,0.8
2023-04-15T12:14:00.392Z,0.8
2023-04-15T12:15:10.184Z,0.8
2023-04-15T12:16:17.992Z,0.8
2023-04-15T12:17:26.731Z,1.1
2023-04-15T12:18:36.650Z,0.9
2023-04-15T12:19:45.402Z,0.6
2023-04-15T12:20:55.145Z,0.9
2023-04-15T12:22:05.005Z,0.5
2023-04-15T12:23:13.772Z,0.6
2023-04-15T12:24:23.585Z,0.8
2023-04-15T12:25:32.346Z,0.9
2023-04-15T12:26:41.064Z,0.8
2023-04-15T12:27:50.834Z,0.6
2023-04-15T12:28:58.528Z,0.9
2023-04-15T12:30:08.253Z,0.9
2023-04-15T12:31:16.993Z,1.1
2023-04-15T12:32:24.788Z,0.9
2023-04-15T12:33:34.501Z,0.9
2023-04-15T12:34:42.220Z,1.2
2023-04-15T12:35:52.317Z,1
2023-04-15T12:37:02.105Z,0.9
2023-04-15T12:38:10.900Z,0.6
2023-04-15T12:39:20.773Z,0.7
2023-04-15T12:40:30.561Z,1.1
2023-04-15T12:41:39.366Z,0.7
2023-04-15T12:42:49.158Z,0.6
2023-04-15T12:43:57.946Z,0.5
2023-04-15T12:45:07.719Z,0.6
2023-04-15T12:46:17.555Z,0.9
2023-04-15T12:47:25.458Z,1
2023-04-15T12:48:35.249Z,0.6
2023-04-15T12:49:44.045Z,0.6
2023-04-15T12:50:51.838Z,0.5
2023-04-15T12:52:01.709Z,0.8
2023-04-15T12:53:10.515Z,0.6
2023-04-15T12:54:18.442Z,0.5
2023-04-15T12:55:28.164Z,0.6
2023-04-15T12:56:37.955Z,0.7
2023-04-15T12:57:47.883Z,0.8
2023-04-15T12:58:57.649Z,0.6
2023-04-15T13:00:06.533Z,0.6
2023-04-15T13:01:15.359Z,0.8
2023-04-15T13:02:25.295Z,0.8
2023-04-15T13:03:33.085Z,0.5
2023-04-15T13:04:42.694Z,0.6
2023-04-15T13:05:51.418Z,0.6
2023-04-15T13:07:00.175Z,0.7
2023-04-15T13:08:10.029Z,0.6
2023-04-15T13:09:17.745Z,0.6
2023-04-15T13:10:27.499Z,0.6
2023-04-15T13:11:37.187Z,0.9
2023-04-15T13:12:46.193Z,0.8
2023-04-15T13:13:56.143Z,0.7
2023-04-15T13:15:07.190Z,0.7
2023-04-15T13:16:15.954Z,0.8
2023-04-15T13:17:25.682Z,0.6
2023-04-15T13:18:34.411Z,0.6
2023-04-15T13:19:43.139Z,0.9
2023-04-15T13:20:52.863Z,0.4
2023-04-15T13:22:01.570Z,0.7
2023-04-15T13:23:11.276Z,0.5
2023-04-15T13:24:20.072Z,1.1
2023-04-15T13:25:29.786Z,1.3
2023-04-15T13:26:39.502Z,1.3
2023-04-15T13:27:47.232Z,1.3
2023-04-15T13:28:55.946Z,1.1
2023-04-15T13:30:05.639Z,1.2
2023-04-15T13:31:13.470Z,1.4
2023-04-15T13:32:23.237Z,0.8
2023-04-15T13:33:32.960Z,0.8
2023-04-15T13:34:40.708Z,0.5
2023-04-15T13:35:50.416Z,0.7
2023-04-15T13:37:00.166Z,0.8
2023-04-15T13:38:09.981Z,0.8
2023-04-15T13:39:19.698Z,0.5
2023-04-15T13:40:28.408Z,0.5
2023-04-15T13:41:38.184Z,0.7
2023-04-15T13:42:48.025Z,1.2
2023-04-15T13:43:56.766Z,1.1
2023-04-15T13:45:06.597Z,0.8
2023-04-15T13:46:14.350Z,0.6
2023-04-15T13:47:24.098Z,0.7
2023-04-15T13:48:33.845Z,0.6
2023-04-15T13:49:41.552Z,0.6
2023-04-15T13:50:51.275Z,0.7
2023-04-15T13:51:59.975Z,0.7
2023-04-15T13:53:07.789Z,0.4
2023-04-15T13:54:17.593Z,0.6
2023-04-15T13:55:28.480Z,0.7
2023-04-15T13:56:36.993Z,1.4
2023-04-15T13:57:46.772Z,0.7
2023-04-15T13:58:54.478Z,0.6
2023-04-15T14:00:04.211Z,0.8
2023-04-15T14:01:13.907Z,0.9
2023-04-15T14:02:22.741Z,0.6
2023-04-15T14:03:32.651Z,0.6
2023-04-15T14:04:40.163Z,0.7
2023-04-15T14:05:48.836Z,0.8
2023-04-15T14:06:58.576Z,0.7
2023-04-15T14:08:06.335Z,0.7
2023-04-15T14:09:16.049Z,0.7
2023-04-15T14:10:25.730Z,0.9
2023-04-15T14:11:33.516Z,1.4
2023-04-15T14:12:43.467Z,2.9
2023-04-15T14:13:52.266Z,1
2023-04-15T14:15:01.980Z,1.1
2023-04-15T14:16:10.789Z,0.6
2023-04-15T14:17:19.496Z,0.9
2023-04-15T14:18:29.179Z,1.3
2023-04-15T14:19:37.871Z,0.8
2023-04-15T14:20:46.632Z,0.7
2023-04-15T14:21:56.295Z,1.3
2023-04-15T14:23:05.087Z,1
2023-04-15T14:24:13.822Z,1.2
2023-04-15T14:25:33.105Z,1.4
2023-04-15T14:26:32.218Z,1.5
2023-04-15T14:27:41.997Z,1.6
2023-04-15T14:28:50.644Z,1.2
2023-04-15T14:29:58.395Z,1.3
2023-04-15T14:31:08.080Z,1.1
2023-04-15T14:32:17.806Z,1
2023-04-15T14:33:26.533Z,1.1
2023-04-15T14:34:36.308Z,4.1
2023-04-15T14:35:44.035Z,1.2
2023-04-15T14:36:52.819Z,1
2023-04-15T14:38:01.548Z,0.9
2023-04-15T14:39:09.489Z,1
2023-04-15T14:40:18.952Z,0.9
2023-04-15T14:41:26.661Z,0.8
2023-04-15T14:42:35.452Z,1
2023-04-15T14:43:45.280Z,0.8
2023-04-15T14:44:53.994Z,1.1
2023-04-15T14:46:03.697Z,0.8
2023-04-15T14:47:12.397Z,0.8
2023-04-15T14:48:20.127Z,0.6
2023-04-15T14:49:29.923Z,0.7
2023-04-15T14:50:37.654Z,0.7
2023-04-15T14:51:45.457Z,0.7
2023-04-15T14:52:55.454Z,1
2023-04-15T14:54:05.197Z,0.8
2023-04-15T14:55:14.807Z,0.8
2023-04-15T14:56:24.529Z,1
2023-04-15T14:57:32.283Z,0.6
2023-04-15T14:58:42.017Z,0.6
2023-04-15T14:59:51.740Z,0.8
2023-04-15T15:00:59.462Z,0.9
2023-04-15T15:02:09.267Z,0.8
2023-04-15T15:03:18.015Z,0.6
2023-04-15T15:04:25.829Z,0.9
2023-04-15T15:05:35.611Z,0.7
2023-04-15T15:06:43.193Z,0.7
2023-04-15T15:07:52.876Z,0.7
2023-04-15T15:09:02.755Z,0.8
2023-04-15T15:10:09.427Z,0.6
2023-04-15T15:11:19.122Z,0.9
2023-04-15T15:12:27.824Z,1.2
2023-04-15T15:13:36.771Z,1
2023-04-15T15:14:46.478Z,0.8
2023-04-15T15:15:55.316Z,1.1
2023-04-15T15:17:04.104Z,1.3
2023-04-15T15:18:13.966Z,0.8
2023-04-15T15:19:21.720Z,1.1
2023-04-15T15:20:31.419Z,0.7
2023-04-15T15:21:41.199Z,0.7
2023-04-15T15:22:49.879Z,0.6
2023-04-15T15:23:59.675Z,0.6
2023-04-15T15:25:08.477Z,0.9
2023-04-15T15:26:18.195Z,1
2023-04-15T15:27:27.927Z,1.1
2023-04-15T15:28:35.713Z,0.6
2023-04-15T15:29:45.344Z,1.2
2023-04-15T15:30:55.117Z,1
2023-04-15T15:32:02.773Z,1.5
2023-04-15T15:33:11.526Z,0.8
2023-04-15T15:34:19.200Z,0.7
2023-04-15T15:35:27.933Z,0.5
2023-04-15T15:36:37.586Z,0.5
2023-04-15T15:37:46.362Z,0.5
2023-04-15T15:38:56.060Z,0.6
2023-04-15T15:40:04.771Z,0.8
2023-04-15T15:41:12.477Z,0.7
2023-04-15T15:42:22.123Z,1.1
2023-04-15T15:43:29.877Z,0.9
2023-04-15T15:44:38.574Z,1.2
2023-04-15T15:45:48.278Z,1.4
2023-04-15T15:46:56.993Z,1.7
2023-04-15T15:48:06.744Z,1.4
2023-04-15T15:49:16.355Z,1.1
2023-04-15T15:50:24.037Z,0.8
2023-04-15T15:51:33.707Z,0.7
2023-04-15T15:52:42.402Z,0.6
2023-04-15T15:53:51.111Z,0.6
2023-04-15T15:55:00.768Z,0.7
2023-04-15T15:56:08.453Z,1.7